sensor_id;sensor_type;location;lat;lon;timestamp;temperature;humidity
27747;DHT22;15138;51.012;4.692;2024-03-08T00:00:32;5.70;99.90
27747;DHT22;15138;51.012;4.692;2024-03-08T00:03:00;5.60;99.90
27747;DHT22;15138;51.012;4.692;2024-03-08T00:05:30;5.60;99.90
27747;DHT22;15138;51.012;4.692;2024-03-08T00:07:58;5.60;99.90
27747;DHT22;15138;51.012;4.692;2024-03-08T00:10:27;5.60;99.90
27747;DHT22;15138;51.012;4.692;2024-03-08T00:12:57;5.60;99.90
27747;DHT22;15138;51.012;4.692;2024-03-08T00:15:26;5.60;99.90
27747;DHT22;15138;51.012;4.692;2024-03-08T00:17:56;5.50;99.90
27747;DHT22;15138;51.012;4.692;2024-03-08T00:20:27;5.50;99.90
27747;DHT22;15138;51.012;4.692;2024-03-08T00:22:55;5.50;99.90
27747;DHT22;15138;51.012;4.692;2024-03-08T00:25:25;5.50;99.90
27747;DHT22;15138;51.012;4.692;2024-03-08T00:27:53;5.50;99.90
27747;DHT22;15138;51.012;4.692;2024-03-08T00:30:24;5.50;99.90
27747;DHT22;15138;51.012;4.692;2024-03-08T00:32:52;5.50;99.90
27747;DHT22;15138;51.012;4.692;2024-03-08T00:35:20;5.50;99.90
27747;DHT22;15138;51.012;4.692;2024-03-08T00:37:48;5.50;1.00
27747;DHT22;15138;51.012;4.692;2024-03-08T00:40:17;5.40;1.00
27747;DHT22;15138;51.012;4.692;2024-03-08T00:42:45;5.40;1.00
27747;DHT22;15138;51.012;4.692;2024-03-08T00:45:14;5.40;1.00
27747;DHT22;15138;51.012;4.692;2024-03-08T00:47:44;5.40;1.00
27747;DHT22;15138;51.012;4.692;2024-03-08T00:50:12;5.40;1.00
27747;DHT22;15138;51.012;4.692;2024-03-08T00:52:40;5.30;1.00
27747;DHT22;15138;51.012;4.692;2024-03-08T00:55:09;5.30;1.00
27747;DHT22;15138;51.012;4.692;2024-03-08T00:57:38;5.30;1.00
27747;DHT22;15138;51.012;4.692;2024-03-08T01:00:07;5.30;1.00
27747;DHT22;15138;51.012;4.692;2024-03-08T01:02:39;5.30;1.00
27747;DHT22;15138;51.012;4.692;2024-03-08T01:05:09;5.30;1.00
27747;DHT22;15138;51.012;4.692;2024-03-08T01:07:37;5.30;1.00
27747;DHT22;15138;51.012;4.692;2024-03-08T01:10:06;5.30;1.00
27747;DHT22;15138;51.012;4.692;2024-03-08T01:12:37;5.20;1.00
27747;DHT22;15138;51.012;4.692;2024-03-08T01:15:06;5.20;1.00
27747;DHT22;15138;51.012;4.692;2024-03-08T01:17:35;5.20;1.00
27747;DHT22;15138;51.012;4.692;2024-03-08T01:20:04;5.20;1.00
27747;DHT22;15138;51.012;4.692;2024-03-08T01:22:34;5.20;1.00
27747;DHT22;15138;51.012;4.692;2024-03-08T01:25:02;5.20;1.00
27747;DHT22;15138;51.012;4.692;2024-03-08T01:27:32;5.20;1.00
27747;DHT22;15138;51.012;4.692;2024-03-08T01:30:04;5.10;1.00
27747;DHT22;15138;51.012;4.692;2024-03-08T01:32:33;5.20;1.00
27747;DHT22;15138;51.012;4.692;2024-03-08T01:35:01;5.10;1.00
27747;DHT22;15138;51.012;4.692;2024-03-08T01:37:30;5.10;1.00
27747;DHT22;15138;51.012;4.692;2024-03-08T01:40:00;5.10;1.00
27747;DHT22;15138;51.012;4.692;2024-03-08T01:42:29;5.10;1.00
27747;DHT22;15138;51.012;4.692;2024-03-08T01:44:57;5.10;1.00
27747;DHT22;15138;51.012;4.692;2024-03-08T01:47:26;5.00;1.00
27747;DHT22;15138;51.012;4.692;2024-03-08T01:49:55;5.00;1.00
27747;DHT22;15138;51.012;4.692;2024-03-08T01:52:23;5.00;1.00
27747;DHT22;15138;51.012;4.692;2024-03-08T01:54:52;4.90;1.00
27747;DHT22;15138;51.012;4.692;2024-03-08T01:57:22;4.90;1.00
27747;DHT22;15138;51.012;4.692;2024-03-08T01:59:50;4.90;1.00
27747;DHT22;15138;51.012;4.692;2024-03-08T02:02:22;4.90;1.00
27747;DHT22;15138;51.012;4.692;2024-03-08T02:04:50;4.90;1.00
27747;DHT22;15138;51.012;4.692;2024-03-08T02:07:20;4.90;1.00
27747;DHT22;15138;51.012;4.692;2024-03-08T02:09:49;4.80;1.00
27747;DHT22;15138;51.012;4.692;2024-03-08T02:12:18;4.80;1.00
27747;DHT22;15138;51.012;4.692;2024-03-08T02:14:49;4.80;1.00
27747;DHT22;15138;51.012;4.692;2024-03-08T02:17:17;4.80;1.00
27747;DHT22;15138;51.012;4.692;2024-03-08T02:19:45;4.80;1.00
27747;DHT22;15138;51.012;4.692;2024-03-08T02:22:16;4.70;1.00
27747;DHT22;15138;51.012;4.692;2024-03-08T02:24:44;4.80;1.00
27747;DHT22;15138;51.012;4.692;2024-03-08T02:27:13;4.70;1.00
27747;DHT22;15138;51.012;4.692;2024-03-08T02:29:42;4.70;1.00
27747;DHT22;15138;51.012;4.692;2024-03-08T02:32:11;4.70;1.00
27747;DHT22;15138;51.012;4.692;2024-03-08T02:34:40;4.70;1.00
27747;DHT22;15138;51.012;4.692;2024-03-08T02:37:08;4.70;1.00
27747;DHT22;15138;51.012;4.692;2024-03-08T02:39:38;4.60;1.00
27747;DHT22;15138;51.012;4.692;2024-03-08T02:42:06;4.60;1.00
27747;DHT22;15138;51.012;4.692;2024-03-08T02:44:35;4.60;1.00
27747;DHT22;15138;51.012;4.692;2024-03-08T02:47:03;4.60;1.00
27747;DHT22;15138;51.012;4.692;2024-03-08T02:49:32;4.50;1.00
27747;DHT22;15138;51.012;4.692;2024-03-08T02:52:00;4.50;1.00
27747;DHT22;15138;51.012;4.692;2024-03-08T02:54:29;4.50;1.00
27747;DHT22;15138;51.012;4.692;2024-03-08T02:56:58;4.50;1.00
27747;DHT22;15138;51.012;4.692;2024-03-08T02:59:27;4.50;1.00
27747;DHT22;15138;51.012;4.692;2024-03-08T03:01:56;4.40;1.00
27747;DHT22;15138;51.012;4.692;2024-03-08T03:04:24;4.40;1.00
27747;DHT22;15138;51.012;4.692;2024-03-08T03:06:52;4.40;1.00
27747;DHT22;15138;51.012;4.692;2024-03-08T03:09:21;4.40;1.00
27747;DHT22;15138;51.012;4.692;2024-03-08T03:11:54;4.40;1.00
27747;DHT22;15138;51.012;4.692;2024-03-08T03:14:24;4.40;1.00
27747;DHT22;15138;51.012;4.692;2024-03-08T03:16:54;4.30;1.00
27747;DHT22;15138;51.012;4.692;2024-03-08T03:19:22;4.30;1.00
27747;DHT22;15138;51.012;4.692;2024-03-08T03:21:50;4.30;1.00
27747;DHT22;15138;51.012;4.692;2024-03-08T03:24:19;4.30;1.00
27747;DHT22;15138;51.012;4.692;2024-03-08T03:26:48;4.30;1.00
27747;DHT22;15138;51.012;4.692;2024-03-08T03:29:16;4.20;1.00
27747;DHT22;15138;51.012;4.692;2024-03-08T03:31:46;4.20;1.00
27747;DHT22;15138;51.012;4.692;2024-03-08T03:34:14;4.30;1.00
27747;DHT22;15138;51.012;4.692;2024-03-08T03:36:45;4.20;1.00
27747;DHT22;15138;51.012;4.692;2024-03-08T03:39:14;4.20;1.00
27747;DHT22;15138;51.012;4.692;2024-03-08T03:41:44;4.10;1.00
27747;DHT22;15138;51.012;4.692;2024-03-08T03:44:13;4.10;1.00
27747;DHT22;15138;51.012;4.692;2024-03-08T03:46:42;4.10;1.00
27747;DHT22;15138;51.012;4.692;2024-03-08T03:49:13;4.10;1.00
27747;DHT22;15138;51.012;4.692;2024-03-08T03:51:41;4.10;1.00
27747;DHT22;15138;51.012;4.692;2024-03-08T03:54:11;4.00;1.00
27747;DHT22;15138;51.012;4.692;2024-03-08T03:56:40;4.00;1.00
27747;DHT22;15138;51.012;4.692;2024-03-08T03:59:08;4.00;1.00
27747;DHT22;15138;51.012;4.692;2024-03-08T04:01:42;4.00;1.00
27747;DHT22;15138;51.012;4.692;2024-03-08T04:04:10;4.00;1.00
27747;DHT22;15138;51.012;4.692;2024-03-08T04:06:40;4.00;1.00
27747;DHT22;15138;51.012;4.692;2024-03-08T04:09:09;4.00;1.00
27747;DHT22;15138;51.012;4.692;2024-03-08T04:11:38;4.00;1.00
27747;DHT22;15138;51.012;4.692;2024-03-08T04:14:06;4.00;1.00
27747;DHT22;15138;51.012;4.692;2024-03-08T04:16:34;4.00;1.00
27747;DHT22;15138;51.012;4.692;2024-03-08T04:19:03;3.90;1.00
27747;DHT22;15138;51.012;4.692;2024-03-08T04:21:31;3.80;1.00
27747;DHT22;15138;51.012;4.692;2024-03-08T04:24:01;3.80;1.00
27747;DHT22;15138;51.012;4.692;2024-03-08T04:26:29;3.90;1.00
27747;DHT22;15138;51.012;4.692;2024-03-08T04:28:58;3.90;1.00
27747;DHT22;15138;51.012;4.692;2024-03-08T04:31:26;3.90;1.00
27747;DHT22;15138;51.012;4.692;2024-03-08T04:33:54;3.90;1.00
27747;DHT22;15138;51.012;4.692;2024-03-08T04:36:23;3.80;1.00
27747;DHT22;15138;51.012;4.692;2024-03-08T04:38:51;3.90;1.00
27747;DHT22;15138;51.012;4.692;2024-03-08T04:41:21;3.80;1.00
27747;DHT22;15138;51.012;4.692;2024-03-08T04:43:50;3.90;1.00
27747;DHT22;15138;51.012;4.692;2024-03-08T04:46:18;3.80;1.00
27747;DHT22;15138;51.012;4.692;2024-03-08T04:48:47;3.80;1.00
27747;DHT22;15138;51.012;4.692;2024-03-08T04:51:15;3.80;1.00
27747;DHT22;15138;51.012;4.692;2024-03-08T04:53:44;3.70;1.00
27747;DHT22;15138;51.012;4.692;2024-03-08T04:56:12;3.70;1.00
27747;DHT22;15138;51.012;4.692;2024-03-08T04:58:42;3.70;1.00
27747;DHT22;15138;51.012;4.692;2024-03-08T05:01:10;3.70;1.00
27747;DHT22;15138;51.012;4.692;2024-03-08T05:03:38;3.70;1.00
27747;DHT22;15138;51.012;4.692;2024-03-08T05:06:07;3.70;1.00
27747;DHT22;15138;51.012;4.692;2024-03-08T05:08:35;3.60;1.00
27747;DHT22;15138;51.012;4.692;2024-03-08T05:11:04;3.60;1.00
27747;DHT22;15138;51.012;4.692;2024-03-08T05:13:34;3.60;1.00
27747;DHT22;15138;51.012;4.692;2024-03-08T05:16:04;3.60;1.00
27747;DHT22;15138;51.012;4.692;2024-03-08T05:18:34;3.50;1.00
27747;DHT22;15138;51.012;4.692;2024-03-08T05:21:03;3.50;1.00
27747;DHT22;15138;51.012;4.692;2024-03-08T05:23:31;3.50;1.00
27747;DHT22;15138;51.012;4.692;2024-03-08T05:26:01;3.60;1.00
27747;DHT22;15138;51.012;4.692;2024-03-08T05:28:32;3.50;1.00
27747;DHT22;15138;51.012;4.692;2024-03-08T05:31:00;3.60;1.00
27747;DHT22;15138;51.012;4.692;2024-03-08T05:33:30;3.50;1.00
27747;DHT22;15138;51.012;4.692;2024-03-08T05:35:58;3.50;1.00
27747;DHT22;15138;51.012;4.692;2024-03-08T05:38:27;3.50;1.00
27747;DHT22;15138;51.012;4.692;2024-03-08T05:40:56;3.50;1.00
27747;DHT22;15138;51.012;4.692;2024-03-08T05:43:24;3.50;1.00
27747;DHT22;15138;51.012;4.692;2024-03-08T05:45:52;3.50;1.00
27747;DHT22;15138;51.012;4.692;2024-03-08T05:48:20;3.50;1.00
27747;DHT22;15138;51.012;4.692;2024-03-08T05:50:51;3.50;1.00
27747;DHT22;15138;51.012;4.692;2024-03-08T05:53:19;3.40;1.00
27747;DHT22;15138;51.012;4.692;2024-03-08T05:55:47;3.40;1.00
27747;DHT22;15138;51.012;4.692;2024-03-08T05:58:16;3.40;1.00
27747;DHT22;15138;51.012;4.692;2024-03-08T06:00:44;3.40;1.00
27747;DHT22;15138;51.012;4.692;2024-03-08T06:03:16;3.40;1.00
27747;DHT22;15138;51.012;4.692;2024-03-08T06:05:47;3.40;1.00
27747;DHT22;15138;51.012;4.692;2024-03-08T06:08:17;3.40;1.00
27747;DHT22;15138;51.012;4.692;2024-03-08T06:10:46;3.40;1.00
27747;DHT22;15138;51.012;4.692;2024-03-08T06:13:19;3.30;1.00
27747;DHT22;15138;51.012;4.692;2024-03-08T06:15:47;3.30;1.00
27747;DHT22;15138;51.012;4.692;2024-03-08T06:18:17;3.30;1.00
27747;DHT22;15138;51.012;4.692;2024-03-08T06:20:45;3.30;1.00
27747;DHT22;15138;51.012;4.692;2024-03-08T06:23:13;3.30;1.00
27747;DHT22;15138;51.012;4.692;2024-03-08T06:25:45;3.30;1.00
27747;DHT22;15138;51.012;4.692;2024-03-08T06:28:14;3.30;1.00
27747;DHT22;15138;51.012;4.692;2024-03-08T06:30:42;3.30;1.00
27747;DHT22;15138;51.012;4.692;2024-03-08T06:33:10;3.30;1.00
27747;DHT22;15138;51.012;4.692;2024-03-08T06:35:39;3.30;1.00
27747;DHT22;15138;51.012;4.692;2024-03-08T06:38:07;3.30;1.00
27747;DHT22;15138;51.012;4.692;2024-03-08T06:40:35;3.40;1.00
27747;DHT22;15138;51.012;4.692;2024-03-08T06:43:06;3.40;1.00
27747;DHT22;15138;51.012;4.692;2024-03-08T06:45:34;3.40;1.00
27747;DHT22;15138;51.012;4.692;2024-03-08T06:48:04;3.50;1.00
27747;DHT22;15138;51.012;4.692;2024-03-08T06:50:36;3.50;1.00
27747;DHT22;15138;51.012;4.692;2024-03-08T06:53:05;3.50;1.00
27747;DHT22;15138;51.012;4.692;2024-03-08T06:55:33;3.50;1.00
27747;DHT22;15138;51.012;4.692;2024-03-08T06:58:02;3.60;1.00
27747;DHT22;15138;51.012;4.692;2024-03-08T07:00:32;3.70;1.00
27747;DHT22;15138;51.012;4.692;2024-03-08T07:03:00;3.70;1.00
27747;DHT22;15138;51.012;4.692;2024-03-08T07:05:29;3.80;1.00
27747;DHT22;15138;51.012;4.692;2024-03-08T07:07:59;3.90;1.00
27747;DHT22;15138;51.012;4.692;2024-03-08T07:10:27;4.00;1.00
27747;DHT22;15138;51.012;4.692;2024-03-08T07:12:56;4.20;1.00
27747;DHT22;15138;51.012;4.692;2024-03-08T07:15:24;4.20;1.00
27747;DHT22;15138;51.012;4.692;2024-03-08T07:17:54;4.40;1.00
27747;DHT22;15138;51.012;4.692;2024-03-08T07:20:22;4.50;1.00
27747;DHT22;15138;51.012;4.692;2024-03-08T07:22:50;4.60;1.00
27747;DHT22;15138;51.012;4.692;2024-03-08T07:25:19;4.70;1.00
27747;DHT22;15138;51.012;4.692;2024-03-08T07:27:50;4.90;1.00
27747;DHT22;15138;51.012;4.692;2024-03-08T07:30:20;5.00;1.00
27747;DHT22;15138;51.012;4.692;2024-03-08T07:33:07;5.20;1.00
27747;DHT22;15138;51.012;4.692;2024-03-08T07:35:39;5.40;1.00
27747;DHT22;15138;51.012;4.692;2024-03-08T07:38:08;5.50;1.00
27747;DHT22;15138;51.012;4.692;2024-03-08T07:40:37;5.70;1.00
27747;DHT22;15138;51.012;4.692;2024-03-08T07:43:07;5.80;1.00
27747;DHT22;15138;51.012;4.692;2024-03-08T07:45:36;6.10;1.00
27747;DHT22;15138;51.012;4.692;2024-03-08T07:48:05;6.30;99.90
27747;DHT22;15138;51.012;4.692;2024-03-08T07:50:38;6.50;99.90
27747;DHT22;15138;51.012;4.692;2024-03-08T07:53:07;6.60;99.90
27747;DHT22;15138;51.012;4.692;2024-03-08T07:55:36;6.80;99.90
27747;DHT22;15138;51.012;4.692;2024-03-08T07:58:04;7.00;99.90
27747;DHT22;15138;51.012;4.692;2024-03-08T08:00:33;7.20;99.90
27747;DHT22;15138;51.012;4.692;2024-03-08T08:03:03;7.40;99.90
27747;DHT22;15138;51.012;4.692;2024-03-08T08:05:31;7.70;99.90
27747;DHT22;15138;51.012;4.692;2024-03-08T08:08:04;8.00;99.90
27747;DHT22;15138;51.012;4.692;2024-03-08T08:10:33;8.10;99.90
27747;DHT22;15138;51.012;4.692;2024-03-08T08:13:01;8.40;99.90
27747;DHT22;15138;51.012;4.692;2024-03-08T08:15:32;8.70;99.90
27747;DHT22;15138;51.012;4.692;2024-03-08T08:18:01;8.80;99.90
27747;DHT22;15138;51.012;4.692;2024-03-08T08:20:33;8.90;99.90
27747;DHT22;15138;51.012;4.692;2024-03-08T08:23:03;9.20;99.90
27747;DHT22;15138;51.012;4.692;2024-03-08T08:25:32;9.40;99.90
27747;DHT22;15138;51.012;4.692;2024-03-08T08:28:02;9.60;99.90
27747;DHT22;15138;51.012;4.692;2024-03-08T08:30:31;9.90;99.90
27747;DHT22;15138;51.012;4.692;2024-03-08T08:33:00;10.00;99.90
27747;DHT22;15138;51.012;4.692;2024-03-08T08:35:29;10.30;99.90
27747;DHT22;15138;51.012;4.692;2024-03-08T08:37:57;10.60;1.00
27747;DHT22;15138;51.012;4.692;2024-03-08T08:40:28;10.70;1.00
27747;DHT22;15138;51.012;4.692;2024-03-08T08:45:26;10.90;99.90
27747;DHT22;15138;51.012;4.692;2024-03-08T08:50:23;11.50;99.90
27747;DHT22;15138;51.012;4.692;2024-03-08T08:57:54;11.90;1.00
27747;DHT22;15138;51.012;4.692;2024-03-08T09:02:57;12.30;1.00
27747;DHT22;15138;51.012;4.692;2024-03-08T09:15:26;13.70;99.90
27747;DHT22;15138;51.012;4.692;2024-03-08T09:17:56;13.60;99.90
27747;DHT22;15138;51.012;4.692;2024-03-08T09:20:26;13.30;99.90
27747;DHT22;15138;51.012;4.692;2024-03-08T09:22:55;13.50;99.90
27747;DHT22;15138;51.012;4.692;2024-03-08T09:25:23;13.60;99.90
27747;DHT22;15138;51.012;4.692;2024-03-08T09:27:52;13.90;99.90
27747;DHT22;15138;51.012;4.692;2024-03-08T09:30:22;14.50;99.90
27747;DHT22;15138;51.012;4.692;2024-03-08T09:32:51;14.80;99.90
27747;DHT22;15138;51.012;4.692;2024-03-08T09:35:20;14.80;99.90
27747;DHT22;15138;51.012;4.692;2024-03-08T09:37:49;15.30;99.90
27747;DHT22;15138;51.012;4.692;2024-03-08T09:40:19;15.10;99.90
27747;DHT22;15138;51.012;4.692;2024-03-08T09:42:48;15.30;99.90
27747;DHT22;15138;51.012;4.692;2024-03-08T09:45:17;15.60;99.90
27747;DHT22;15138;51.012;4.692;2024-03-08T09:47:46;16.20;99.90
27747;DHT22;15138;51.012;4.692;2024-03-08T09:50:15;16.20;99.90
27747;DHT22;15138;51.012;4.692;2024-03-08T09:52:48;15.90;99.90
27747;DHT22;15138;51.012;4.692;2024-03-08T09:55:17;16.30;99.90
27747;DHT22;15138;51.012;4.692;2024-03-08T09:57:51;16.40;1.00
27747;DHT22;15138;51.012;4.692;2024-03-08T10:00:43;17.00;99.90
27747;DHT22;15138;51.012;4.692;2024-03-08T10:05:42;16.80;99.90
27747;DHT22;15138;51.012;4.692;2024-03-08T10:08:11;17.20;87.10
27747;DHT22;15138;51.012;4.692;2024-03-08T10:10:40;16.90;1.00
27747;DHT22;15138;51.012;4.692;2024-03-08T10:13:10;17.40;99.90
27747;DHT22;15138;51.012;4.692;2024-03-08T10:15:39;17.50;99.90
27747;DHT22;15138;51.012;4.692;2024-03-08T10:18:08;17.70;1.00
27747;DHT22;15138;51.012;4.692;2024-03-08T10:20:38;17.50;99.90
27747;DHT22;15138;51.012;4.692;2024-03-08T10:23:07;17.50;99.90
27747;DHT22;15138;51.012;4.692;2024-03-08T10:25:38;17.90;99.90
27747;DHT22;15138;51.012;4.692;2024-03-08T10:28:07;18.10;99.90
27747;DHT22;15138;51.012;4.692;2024-03-08T10:30:35;17.80;99.90
27747;DHT22;15138;51.012;4.692;2024-03-08T11:26:18;20.10;1.00
27747;DHT22;15138;51.012;4.692;2024-03-08T11:28:49;18.70;1.00
27747;DHT22;15138;51.012;4.692;2024-03-08T11:46:32;21.10;99.90
27747;DHT22;15138;51.012;4.692;2024-03-08T11:51:30;20.60;1.00
27747;DHT22;15138;51.012;4.692;2024-03-08T11:56:30;21.70;99.90
27747;DHT22;15138;51.012;4.692;2024-03-08T12:13:58;22.60;99.90
27747;DHT22;15138;51.012;4.692;2024-03-08T12:24:04;22.90;1.00
27747;DHT22;15138;51.012;4.692;2024-03-08T12:29:18;22.20;61.90
27747;DHT22;15138;51.012;4.692;2024-03-08T12:31:48;22.30;1.00
27747;DHT22;15138;51.012;4.692;2024-03-08T12:34:18;23.00;1.00
27747;DHT22;15138;51.012;4.692;2024-03-08T12:36:47;22.80;99.90
27747;DHT22;15138;51.012;4.692;2024-03-08T12:41:50;23.00;99.90
27747;DHT22;15138;51.012;4.692;2024-03-08T12:44:19;23.10;48.40
27747;DHT22;15138;51.012;4.692;2024-03-08T12:46:49;22.70;1.00
27747;DHT22;15138;51.012;4.692;2024-03-08T12:49:20;22.30;20.10
27747;DHT22;15138;51.012;4.692;2024-03-08T12:56:52;23.60;99.90
27747;DHT22;15138;51.012;4.692;2024-03-08T12:59:22;23.60;99.90
27747;DHT22;15138;51.012;4.692;2024-03-08T13:01:51;22.70;1.00
27747;DHT22;15138;51.012;4.692;2024-03-08T13:17:02;22.50;99.90
27747;DHT22;15138;51.012;4.692;2024-03-08T13:19:31;22.70;99.90
27747;DHT22;15138;51.012;4.692;2024-03-08T13:22:01;23.20;99.90
27747;DHT22;15138;51.012;4.692;2024-03-08T13:24:31;23.20;31.70
27747;DHT22;15138;51.012;4.692;2024-03-08T13:27:00;23.50;99.90
27747;DHT22;15138;51.012;4.692;2024-03-08T13:29:30;23.30;94.40
27747;DHT22;15138;51.012;4.692;2024-03-08T13:32:00;23.00;25.10
27747;DHT22;15138;51.012;4.692;2024-03-08T13:34:30;22.80;1.00
27747;DHT22;15138;51.012;4.692;2024-03-08T13:37:02;23.60;99.90
27747;DHT22;15138;51.012;4.692;2024-03-08T13:39:32;23.80;99.90
27747;DHT22;15138;51.012;4.692;2024-03-08T13:42:07;23.60;99.90
27747;DHT22;15138;51.012;4.692;2024-03-08T13:44:38;23.80;99.90
27747;DHT22;15138;51.012;4.692;2024-03-08T13:47:07;23.70;99.90
27747;DHT22;15138;51.012;4.692;2024-03-08T13:49:35;24.10;99.90
27747;DHT22;15138;51.012;4.692;2024-03-08T13:52:05;23.40;99.90
27747;DHT22;15138;51.012;4.692;2024-03-08T13:54:35;23.20;1.00
27747;DHT22;15138;51.012;4.692;2024-03-08T13:57:05;23.30;8.30
27747;DHT22;15138;51.012;4.692;2024-03-08T13:59:34;23.60;1.00
27747;DHT22;15138;51.012;4.692;2024-03-08T14:02:05;23.60;88.40
27747;DHT22;15138;51.012;4.692;2024-03-08T14:04:37;23.50;99.00
27747;DHT22;15138;51.012;4.692;2024-03-08T14:09:35;22.50;99.90
27747;DHT22;15138;51.012;4.692;2024-03-08T14:12:10;23.10;1.00
27747;DHT22;15138;51.012;4.692;2024-03-08T14:14:38;22.80;1.00
27747;DHT22;15138;51.012;4.692;2024-03-08T14:22:06;22.70;1.00
27747;DHT22;15138;51.012;4.692;2024-03-08T14:24:37;23.00;99.90
27747;DHT22;15138;51.012;4.692;2024-03-08T14:37:05;22.30;99.90
27747;DHT22;15138;51.012;4.692;2024-03-08T14:39:38;22.40;99.90
27747;DHT22;15138;51.012;4.692;2024-03-08T14:42:07;22.10;1.00
27747;DHT22;15138;51.012;4.692;2024-03-08T14:44:40;21.90;1.00
27747;DHT22;15138;51.012;4.692;2024-03-08T14:47:08;22.20;1.00
27747;DHT22;15138;51.012;4.692;2024-03-08T14:49:39;22.30;1.00
27747;DHT22;15138;51.012;4.692;2024-03-08T14:52:08;21.70;1.00
27747;DHT22;15138;51.012;4.692;2024-03-08T14:54:54;21.90;1.00
27747;DHT22;15138;51.012;4.692;2024-03-08T14:57:25;21.80;1.00
27747;DHT22;15138;51.012;4.692;2024-03-08T14:59:57;21.80;1.00
27747;DHT22;15138;51.012;4.692;2024-03-08T15:02:29;21.40;1.00
27747;DHT22;15138;51.012;4.692;2024-03-08T15:05:00;21.20;99.70
27747;DHT22;15138;51.012;4.692;2024-03-08T15:07:30;20.90;1.00
27747;DHT22;15138;51.012;4.692;2024-03-08T15:12:27;20.90;1.00
27747;DHT22;15138;51.012;4.692;2024-03-08T15:14:56;20.90;99.90
27747;DHT22;15138;51.012;4.692;2024-03-08T15:17:24;20.70;99.90
27747;DHT22;15138;51.012;4.692;2024-03-08T15:19:53;20.90;99.90
27747;DHT22;15138;51.012;4.692;2024-03-08T15:24:51;20.70;99.90
27747;DHT22;15138;51.012;4.692;2024-03-08T15:27:20;20.70;99.90
27747;DHT22;15138;51.012;4.692;2024-03-08T15:29:48;20.60;1.00
27747;DHT22;15138;51.012;4.692;2024-03-08T15:32:18;20.70;99.90
27747;DHT22;15138;51.012;4.692;2024-03-08T15:34:49;20.40;99.90
27747;DHT22;15138;51.012;4.692;2024-03-08T15:37:22;20.50;1.00
27747;DHT22;15138;51.012;4.692;2024-03-08T15:39:52;20.10;99.90
27747;DHT22;15138;51.012;4.692;2024-03-08T15:42:20;20.10;99.90
27747;DHT22;15138;51.012;4.692;2024-03-08T15:44:49;20.00;99.90
27747;DHT22;15138;51.012;4.692;2024-03-08T15:47:21;19.80;99.90
27747;DHT22;15138;51.012;4.692;2024-03-08T15:49:49;19.20;99.90
27747;DHT22;15138;51.012;4.692;2024-03-08T15:52:18;18.90;99.90
27747;DHT22;15138;51.012;4.692;2024-03-08T15:57:16;19.00;99.90
27747;DHT22;15138;51.012;4.692;2024-03-08T15:59:47;18.90;99.90
27747;DHT22;15138;51.012;4.692;2024-03-08T16:02:15;18.60;99.90
27747;DHT22;15138;51.012;4.692;2024-03-08T16:04:45;18.10;99.90
27747;DHT22;15138;51.012;4.692;2024-03-08T16:09:42;18.10;99.90
27747;DHT22;15138;51.012;4.692;2024-03-08T16:12:12;18.10;99.90
27747;DHT22;15138;51.012;4.692;2024-03-08T16:14:40;17.70;99.90
27747;DHT22;15138;51.012;4.692;2024-03-08T16:17:09;17.80;67.10
27747;DHT22;15138;51.012;4.692;2024-03-08T16:19:37;17.70;73.70
27747;DHT22;15138;51.012;4.692;2024-03-08T16:22:08;17.50;67.70
27747;DHT22;15138;51.012;4.692;2024-03-08T16:24:36;17.30;99.90
27747;DHT22;15138;51.012;4.692;2024-03-08T16:27:05;17.40;99.90
27747;DHT22;15138;51.012;4.692;2024-03-08T16:29:34;17.00;99.90
27747;DHT22;15138;51.012;4.692;2024-03-08T16:32:03;16.90;75.30
27747;DHT22;15138;51.012;4.692;2024-03-08T16:34:32;16.60;99.90
27747;DHT22;15138;51.012;4.692;2024-03-08T16:37:01;16.50;99.90
27747;DHT22;15138;51.012;4.692;2024-03-08T16:39:30;16.30;99.90
27747;DHT22;15138;51.012;4.692;2024-03-08T16:41:58;16.20;99.90
27747;DHT22;15138;51.012;4.692;2024-03-08T16:44:27;16.00;99.90
27747;DHT22;15138;51.012;4.692;2024-03-08T16:46:59;15.70;99.90
27747;DHT22;15138;51.012;4.692;2024-03-08T16:49:28;15.40;99.90
27747;DHT22;15138;51.012;4.692;2024-03-08T16:51:57;15.30;99.90
27747;DHT22;15138;51.012;4.692;2024-03-08T16:54:25;15.50;99.90
27747;DHT22;15138;51.012;4.692;2024-03-08T16:57:09;15.20;99.90
27747;DHT22;15138;51.012;4.692;2024-03-08T16:59:41;15.10;99.90
27747;DHT22;15138;51.012;4.692;2024-03-08T17:02:10;14.80;99.90
27747;DHT22;15138;51.012;4.692;2024-03-08T17:04:39;14.70;99.90
27747;DHT22;15138;51.012;4.692;2024-03-08T17:07:07;14.50;93.40
27747;DHT22;15138;51.012;4.692;2024-03-08T17:09:35;14.40;91.90
27747;DHT22;15138;51.012;4.692;2024-03-08T17:12:04;14.10;93.50
27747;DHT22;15138;51.012;4.692;2024-03-08T17:14:34;14.20;76.60
27747;DHT22;15138;51.012;4.692;2024-03-08T17:17:04;14.00;74.70
27747;DHT22;15138;51.012;4.692;2024-03-08T17:19:34;13.80;78.40
27747;DHT22;15138;51.012;4.692;2024-03-08T17:22:03;13.70;77.00
27747;DHT22;15138;51.012;4.692;2024-03-08T17:24:33;13.60;75.00
27747;DHT22;15138;51.012;4.692;2024-03-08T17:27:02;13.50;33.10
27747;DHT22;15138;51.012;4.692;2024-03-08T17:29:30;13.40;56.00
27747;DHT22;15138;51.012;4.692;2024-03-08T17:34:27;13.00;99.90
27747;DHT22;15138;51.012;4.692;2024-03-08T17:36:57;13.10;85.30
27747;DHT22;15138;51.012;4.692;2024-03-08T17:39:25;13.10;94.60
27747;DHT22;15138;51.012;4.692;2024-03-08T17:41:56;12.90;47.70
27747;DHT22;15138;51.012;4.692;2024-03-08T17:44:28;12.80;20.10
27747;DHT22;15138;51.012;4.692;2024-03-08T17:51:58;12.40;99.90
27747;DHT22;15138;51.012;4.692;2024-03-08T17:54:31;12.50;1.00
27747;DHT22;15138;51.012;4.692;2024-03-08T17:56:59;12.40;1.00
27747;DHT22;15138;51.012;4.692;2024-03-08T18:01:56;12.00;1.00
27747;DHT22;15138;51.012;4.692;2024-03-08T18:04:25;12.10;97.10
27747;DHT22;15138;51.012;4.692;2024-03-08T18:06:53;12.00;99.90
27747;DHT22;15138;51.012;4.692;2024-03-08T18:09:23;12.00;97.50
27747;DHT22;15138;51.012;4.692;2024-03-08T18:11:53;11.80;1.00
27747;DHT22;15138;51.012;4.692;2024-03-08T18:14:23;11.80;1.00
27747;DHT22;15138;51.012;4.692;2024-03-08T18:16:51;11.70;1.00
27747;DHT22;15138;51.012;4.692;2024-03-08T18:19:20;11.80;99.90
27747;DHT22;15138;51.012;4.692;2024-03-08T18:21:49;11.60;99.90
27747;DHT22;15138;51.012;4.692;2024-03-08T18:24:17;11.60;99.90
27747;DHT22;15138;51.012;4.692;2024-03-08T18:26:48;11.40;1.00
27747;DHT22;15138;51.012;4.692;2024-03-08T18:29:17;11.50;1.00
27747;DHT22;15138;51.012;4.692;2024-03-08T18:31:48;11.40;1.00
27747;DHT22;15138;51.012;4.692;2024-03-08T18:34:17;11.30;86.60
27747;DHT22;15138;51.012;4.692;2024-03-08T18:36:49;11.20;1.00
27747;DHT22;15138;51.012;4.692;2024-03-08T18:39:18;11.20;1.00
27747;DHT22;15138;51.012;4.692;2024-03-08T18:41:54;11.20;1.00
27747;DHT22;15138;51.012;4.692;2024-03-08T18:44:23;11.10;1.00
27747;DHT22;15138;51.012;4.692;2024-03-08T18:46:51;11.10;26.90
27747;DHT22;15138;51.012;4.692;2024-03-08T18:49:23;11.00;2.30
27747;DHT22;15138;51.012;4.692;2024-03-08T18:51:52;11.00;1.00
27747;DHT22;15138;51.012;4.692;2024-03-08T18:54:21;11.00;1.00
27747;DHT22;15138;51.012;4.692;2024-03-08T18:56:54;10.90;1.00
27747;DHT22;15138;51.012;4.692;2024-03-08T18:59:24;10.80;1.00
27747;DHT22;15138;51.012;4.692;2024-03-08T19:01:53;10.70;1.00